Time;durP1;ratioP1;P1;durP2;ratioP2;P2;SDS_P1;SDS_P2;PMS_P1;PMS_P2;Temp;Humidity;BMP_temperature;BMP_pressure;BME280_temperature;BME280_humidity;BME280_pressure;Samples;Min_cycle;Max_cycle;Signal;HPM_P1;HPM_P2
2023/10/17 00:00:28;;;;;;;7.85;6.03;;;4.30;1.00;;;;;;7370585;19;20014;-70
2023/10/17 00:03:01;;;;;;;10.18;6.03;;;4.30;1.00;;;;;;7374929;19;20427;-70
2023/10/17 00:05:32;;;;;;;8.57;5.50;;;4.20;1.00;;;;;;7374877;19;20605;-70
2023/10/17 00:08:05;;;;;;;7.25;5.63;;;4.20;1.00;;;;;;7373829;19;20554;-70
2023/10/17 00:10:41;;;;;;;8.55;5.95;;;4.20;1.00;;;;;;7374214;19;20764;-69
2023/10/17 00:13:29;;;;;;;9.18;5.53;;;4.30;1.00;;;;;;7375054;19;20470;-69
2023/10/17 00:16:01;;;;;;;7.35;4.93;;;4.40;1.00;;;;;;6857531;19;2004650;-70
2023/10/17 00:18:33;;;;;;;6.45;4.95;;;4.60;1.00;;;;;;7371064;19;20014;-70
2023/10/17 00:21:10;;;;;;;6.05;4.65;;;4.60;1.00;;;;;;7374509;19;20011;-70
2023/10/17 00:23:42;;;;;;;6.30;4.65;;;4.70;1.00;;;;;;7374723;19;20050;-69
2023/10/17 00:26:14;;;;;;;7.97;5.38;;;4.70;1.00;;;;;;7371008;19;20368;-70
2023/10/17 00:28:44;;;;;;;6.70;4.88;;;4.60;1.00;;;;;;7373315;19;19999;-69
2023/10/17 00:31:14;;;;;;;5.97;4.30;;;4.60;1.00;;;;;;7373735;19;20070;-69
2023/10/17 00:33:49;;;;;;;6.85;4.90;;;4.60;1.00;;;;;;7373707;19;20015;-69
2023/10/17 00:36:19;;;;;;;7.13;4.82;;;4.60;1.00;;;;;;7371533;19;20474;-70
2023/10/17 00:38:49;;;;;;;8.02;4.70;;;4.60;1.00;;;;;;7372050;19;20015;-70
2023/10/17 00:41:29;;;;;;;7.68;4.70;;;4.60;1.00;;;;;;7374517;19;20106;-71
2023/10/17 00:44:00;;;;;;;5.70;4.47;;;4.60;1.00;;;;;;7376553;19;20035;-70
2023/10/17 00:46:30;;;;;;;6.80;4.97;;;4.50;1.00;;;;;;7376389;19;20018;-70
2023/10/17 00:49:10;;;;;;;7.80;4.65;;;4.60;1.00;;;;;;7377887;19;20022;-68
2023/10/17 00:51:41;;;;;;;5.88;4.30;;;4.50;1.00;;;;;;7380221;19;20014;-70
2023/10/17 00:54:18;;;;;;;5.32;4.25;;;4.40;1.00;;;;;;7380758;19;20509;-69
2023/10/17 00:56:49;;;;;;;7.85;4.35;;;4.40;1.00;;;;;;7375067;19;20010;-73
2023/10/17 00:59:24;;;;;;;7.95;4.95;;;4.40;1.00;;;;;;7378422;19;20011;-70
2023/10/17 01:01:55;;;;;;;6.32;4.72;;;4.40;1.00;;;;;;7377722;19;20014;-70
2023/10/17 01:04:28;;;;;;;7.22;4.80;;;4.40;1.00;;;;;;7379249;19;20102;-70
2023/10/17 01:07:05;;;;;;;7.05;4.47;;;4.40;1.00;;;;;;7379067;19;20015;-69
2023/10/17 01:09:36;;;;;;;6.63;4.60;;;4.40;1.00;;;;;;7378100;19;20041;-69
2023/10/17 01:12:10;;;;;;;5.57;4.78;;;4.30;1.00;;;;;;7378874;19;20047;-69
2023/10/17 01:14:40;;;;;;;7.72;4.70;;;4.10;1.00;;;;;;7379944;19;20006;-69
2023/10/17 01:17:14;;;;;;;6.78;4.97;;;4.00;1.00;;;;;;7379274;19;20086;-69
2023/10/17 01:19:49;;;;;;;7.23;5.00;;;3.90;1.00;;;;;;7379485;19;20011;-69
2023/10/17 01:22:19;;;;;;;6.70;5.20;;;3.70;1.00;;;;;;7376223;19;20074;-70
2023/10/17 01:24:53;;;;;;;7.57;5.38;;;3.60;1.00;;;;;;7378362;19;20060;-70
2023/10/17 01:27:26;;;;;;;10.90;5.50;;;3.50;1.00;;;;;;7375704;19;20020;-69
2023/10/17 01:29:56;;;;;;;8.63;5.55;;;3.50;1.00;;;;;;7378701;19;20010;-69
2023/10/17 01:32:27;;;;;;;8.57;5.28;;;3.30;1.00;;;;;;7378338;19;20021;-68
2023/10/17 01:34:57;;;;;;;10.02;6.25;;;3.30;1.00;;;;;;7379028;19;20045;-70
2023/10/17 01:37:27;;;;;;;9.68;5.80;;;3.20;4.10;;;;;;7376965;19;20031;-69
2023/10/17 01:39:59;;;;;;;8.55;5.97;;;3.20;7.20;;;;;;7378826;19;20041;-69
2023/10/17 01:42:30;;;;;;;7.95;6.05;;;3.10;8.20;;;;;;7378287;19;20022;-69
2023/10/17 01:45:00;;;;;;;9.63;6.03;;;3.10;11.50;;;;;;7377947;19;20035;-69
2023/10/17 01:47:30;;;;;;;9.95;6.07;;;3.10;13.50;;;;;;7374657;19;20098;-70
2023/10/17 01:50:00;;;;;;;7.63;5.57;;;3.10;14.50;;;;;;7376831;19;20044;-70
2023/10/17 01:52:31;;;;;;;8.25;5.53;;;3.30;9.90;;;;;;7377371;19;20082;-70
2023/10/17 01:55:09;;;;;;;6.65;5.68;;;3.50;3.50;;;;;;7377760;19;20017;-70
2023/10/17 01:57:41;;;;;;;9.25;5.40;;;3.40;1.00;;;;;;7375444;19;20035;-70
2023/10/17 02:00:23;;;;;;;7.38;5.60;;;3.40;1.00;;;;;;7374558;19;20006;-70
2023/10/17 02:02:54;;;;;;;8.98;6.03;;;3.30;1.00;;;;;;7376150;19;20011;-70
2023/10/17 02:05:25;;;;;;;6.50;5.45;;;3.30;1.00;;;;;;7377310;19;20018;-70
2023/10/17 02:07:56;;;;;;;6.47;5.75;;;3.20;1.00;;;;;;7374974;19;20010;-70
2023/10/17 02:10:29;;;;;;;7.15;5.63;;;3.20;1.50;;;;;;7378981;19;20010;-70
2023/10/17 02:13:00;;;;;;;7.18;5.45;;;3.20;3.50;;;;;;7378346;19;20014;-70
2023/10/17 02:15:30;;;;;;;7.20;5.65;;;3.20;3.60;;;;;;7379180;19;20030;-71
2023/10/17 02:18:11;;;;;;;7.60;5.53;;;3.10;3.50;;;;;;7377102;19;20790;-70
2023/10/17 02:20:47;;;;;;;8.05;5.90;;;3.10;5.50;;;;;;7380320;19;20019;-70
2023/10/17 02:23:25;;;;;;;8.45;5.95;;;3.10;7.20;;;;;;7373873;19;20138;-69
2023/10/17 02:26:00;;;;;;;9.90;6.28;;;3.00;8.20;;;;;;7377733;19;20040;-70
2023/10/17 02:28:37;;;;;;;6.70;5.47;;;3.00;9.60;;;;;;7377622;19;20408;-70
2023/10/17 02:31:08;;;;;;;9.73;5.72;;;3.00;10.80;;;;;;7378171;19;20006;-69
2023/10/17 02:33:41;;;;;;;7.22;5.55;;;3.10;9.70;;;;;;7378311;19;20094;-68
2023/10/17 02:36:16;;;;;;;8.23;6.15;;;3.10;8.60;;;;;;7377831;19;20007;-68
2023/10/17 02:38:46;;;;;;;;;;;3.00;9.70;;;;;;7374790;19;20011;-70
2023/10/17 02:41:22;;;;;;;7.43;6.07;;;3.00;9.90;;;;;;7376446;19;19930;-69
2023/10/17 02:43:54;;;;;;;8.52;5.57;;;3.10;10.00;;;;;;7376201;19;20420;-69
2023/10/17 02:46:27;;;;;;;8.85;5.93;;;3.00;10.30;;;;;;7376252;19;20018;-69
2023/10/17 02:48:59;;;;;;;7.07;5.32;;;3.00;11.50;;;;;;7375128;19;20015;-68
2023/10/17 02:51:36;;;;;;;7.15;5.57;;;3.10;12.40;;;;;;7378294;19;20458;-70
2023/10/17 02:54:12;;;;;;;7.35;5.05;;;3.20;8.60;;;;;;7377462;19;20026;-69
2023/10/17 02:56:51;;;;;;;7.88;5.57;;;3.30;4.90;;;;;;7375733;19;20117;-69
2023/10/17 02:59:21;;;;;;;8.50;5.75;;;3.20;2.00;;;;;;7372817;19;20027;-69
2023/10/17 03:01:56;;;;;;;7.65;5.35;;;3.20;3.60;;;;;;7378958;19;20007;-69
2023/10/17 03:04:26;;;;;;;9.35;5.82;;;3.20;5.30;;;;;;7379101;19;20098;-70
2023/10/17 03:06:58;;;;;;;7.63;5.03;;;3.30;2.00;;;;;;7375823;19;20471;-69
2023/10/17 03:09:37;;;;;;;6.78;5.60;;;3.30;2.20;;;;;;7379923;19;20500;-69
2023/10/17 03:12:17;;;;;;;7.07;4.97;;;3.30;2.90;;;;;;7378636;19;20470;-69
2023/10/17 03:17:30;;;;;;;7.35;5.38;;;3.50;1.00;;;;;;7375269;19;20010;-70
2023/10/17 03:19:57;;;;;;;8.45;4.85;;;3.50;1.00;;;;;;7378935;19;20066;-69
2023/10/17 03:22:27;;;;;;;8.18;5.53;;;3.40;1.00;;;;;;7378208;19;20018;-69
2023/10/17 03:25:03;;;;;;;6.68;5.13;;;3.40;1.00;;;;;;7377489;19;20110;-70
2023/10/17 03:27:48;;;;;;;8.65;5.35;;;3.50;1.00;;;;;;7378438;19;20017;-70
2023/10/17 03:30:21;;;;;;;7.22;5.10;;;3.40;1.00;;;;;;7377199;19;20052;-70
2023/10/17 03:33:05;;;;;;;7.60;5.10;;;3.40;1.00;;;;;;7378074;19;20010;-70
2023/10/17 03:35:46;;;;;;;6.30;5.10;;;3.40;1.00;;;;;;7378242;19;20098;-70
2023/10/17 03:38:17;;;;;;;7.97;5.22;;;3.30;1.00;;;;;;7376682;19;20416;-69
2023/10/17 03:40:53;;;;;;;6.88;5.13;;;3.40;1.30;;;;;;7375569;19;20601;-70
2023/10/17 03:43:28;;;;;;;7.78;5.85;;;3.50;3.00;;;;;;7377284;19;20036;-69
2023/10/17 03:46:04;;;;;;;6.20;4.72;;;3.50;1.00;;;;;;7377793;19;20503;-70
2023/10/17 03:48:36;;;;;;;8.30;5.72;;;3.50;1.00;;;;;;7376065;19;20017;-70
2023/10/17 03:51:21;;;;;;;8.05;5.13;;;3.60;1.00;;;;;;7378420;19;20443;-70
2023/10/17 03:53:53;;;;;;;;;;;3.60;1.00;;;;;;7372604;19;20095;-70
2023/10/17 03:56:26;;;;;;;8.55;5.32;;;3.60;1.00;;;;;;7376973;19;21159;-70
2023/10/17 03:59:18;;;;;;;5.70;4.53;;;3.80;1.00;;;;;;7377849;19;20024;-70
2023/10/17 04:01:48;;;;;;;8.20;4.18;;;4.00;1.00;;;;;;7375327;19;20110;-71
2023/10/17 04:04:30;;;;;;;8.68;4.72;;;4.00;1.00;;;;;;7375642;19;20016;-70
2023/10/17 04:07:04;;;;;;;6.82;4.68;;;4.10;1.00;;;;;;7376067;19;20031;-70
2023/10/17 04:09:41;;;;;;;7.50;4.40;;;4.00;1.00;;;;;;7377692;19;20015;-70
2023/10/17 04:12:21;;;;;;;5.97;4.88;;;3.90;1.00;;;;;;7377532;19;20040;-70
2023/10/17 04:14:58;;;;;;;6.43;5.25;;;3.70;1.00;;;;;;7370962;19;20007;-70
2023/10/17 04:17:31;;;;;;;8.23;5.40;;;3.60;1.00;;;;;;7374747;19;20101;-69
2023/10/17 04:20:11;;;;;;;6.78;4.78;;;3.70;1.00;;;;;;7382326;19;20010;-70
2023/10/17 04:22:43;;;;;;;6.03;4.32;;;3.70;1.00;;;;;;7384726;19;20014;-70
2023/10/17 04:25:34;;;;;;;7.97;4.18;;;3.90;1.00;;;;;;7382063;19;20093;-70
2023/10/17 04:28:04;;;;;;;7.38;4.15;;;4.00;1.00;;;;;;6865544;19;2004014;-71
2023/10/17 04:30:46;;;;;;;5.13;4.18;;;4.00;1.00;;;;;;7384284;19;20025;-70
2023/10/17 04:33:19;;;;;;;4.85;4.05;;;4.00;1.00;;;;;;7382980;19;20006;-70
2023/10/17 04:35:54;;;;;;;7.00;4.22;;;4.00;1.00;;;;;;7380637;19;20010;-70
2023/10/17 04:38:36;;;;;;;;;;;4.00;1.00;;;;;;7383311;19;20023;-69
2023/10/17 04:41:30;;;;;;;7.25;4.57;;;4.00;1.00;;;;;;7383342;19;20016;-69
2023/10/17 04:44:02;;;;;;;7.80;5.07;;;4.00;1.00;;;;;;6869454;19;2004328;-69
2023/10/17 04:46:49;;;;;;;7.07;4.95;;;4.00;1.00;;;;;;7380512;19;20030;-69
2023/10/17 04:49:21;;;;;;;7.93;4.60;;;4.00;1.00;;;;;;7377578;19;20007;-69
2023/10/17 04:52:01;;;;;;;99.28;77.45;;;4.00;1.00;;;;;;7382563;19;20011;-69
2023/10/17 04:54:38;;;;;;;33.67;26.38;;;4.00;1.00;;;;;;7383551;19;20090;-70
2023/10/17 04:57:15;;;;;;;13.48;6.57;;;4.10;1.00;;;;;;7382144;19;20040;-70
2023/10/17 04:59:55;;;;;;;5.78;4.80;;;4.20;1.00;;;;;;7380392;19;20082;-69
2023/10/17 05:02:47;;;;;;;8.88;5.25;;;4.20;1.00;;;;;;7380834;19;20119;-70
2023/10/17 06:18:52;;;;;;;11.32;6.40;;;3.80;1.50;;;;;;7373830;19;20696;-70
2023/10/17 06:21:35;;;;;;;10.82;6.63;;;3.80;2.00;;;;;;7378125;19;20014;-70
2023/10/17 06:24:06;;;;;;;16.75;7.57;;;3.90;1.00;;;;;;7376776;19;20591;-71
2023/10/17 06:27:11;;;;;;;18.75;7.68;;;3.90;1.00;;;;;;7372519;19;20054;-70
2023/10/17 06:35:20;;;;;;;13.05;6.40;;;4.10;1.00;;;;;;7378015;19;20035;-70
2023/10/17 06:37:49;;;;;;;11.50;6.63;;;4.10;1.00;;;;;;7368567;19;20014;-70
2023/10/17 06:40:30;;;;;;;8.43;5.97;;;4.30;1.00;;;;;;7375893;19;20019;-70
2023/10/17 06:42:59;;;;;;;11.20;5.60;;;4.40;1.00;;;;;;7377398;19;20135;-69
2023/10/17 06:45:33;;;;;;;9.45;6.00;;;4.60;1.00;;;;;;7376449;19;20043;-69
2023/10/17 06:48:07;;;;;;;9.93;5.53;;;4.80;1.00;;;;;;7375486;19;20015;-69
2023/10/17 06:53:27;;;;;;;9.82;5.20;;;5.10;1.00;;;;;;7371578;19;20089;-70
2023/10/17 06:56:09;;;;;;;9.68;4.70;;;5.20;1.00;;;;;;7375701;19;20051;-69
2023/10/17 06:58:40;;;;;;;6.53;4.22;;;5.20;1.00;;;;;;7375847;19;20003;-70
2023/10/17 07:01:19;;;;;;;7.80;5.25;;;5.30;1.00;;;;;;7376139;19;20138;-70
2023/10/17 07:03:54;;;;;;;7.03;5.20;;;5.30;1.00;;;;;;7371234;19;20022;-70
2023/10/17 07:06:29;;;;;;;7.85;5.28;;;5.30;1.00;;;;;;7374620;19;20093;-71
2023/10/17 07:09:04;;;;;;;14.45;5.20;;;5.40;1.00;;;;;;7376020;19;20010;-69
2023/10/17 07:11:38;;;;;;;8.43;4.68;;;5.50;1.00;;;;;;7375770;19;20014;-70
2023/10/17 07:14:22;;;;;;;8.13;4.90;;;5.60;1.00;;;;;;7376258;19;20090;-69
2023/10/17 07:16:57;;;;;;;8.43;4.93;;;5.80;1.00;;;;;;7372182;19;20035;-70
2023/10/17 07:22:11;;;;;;;7.25;4.82;;;6.00;1.00;;;;;;7376109;19;20007;-69
2023/10/17 07:24:48;;;;;;;8.20;5.03;;;5.90;1.00;;;;;;7375040;19;20020;-70
2023/10/17 07:27:26;;;;;;;5.75;4.78;;;5.90;1.00;;;;;;7375548;19;20022;-70
2023/10/17 07:30:10;;;;;;;6.35;4.95;;;5.90;1.00;;;;;;7372810;19;20014;-70
2023/10/17 07:32:54;;;;;;;7.20;4.95;;;5.80;1.00;;;;;;7375775;19;20049;-70
2023/10/17 07:35:30;;;;;;;10.02;6.35;;;5.80;1.00;;;;;;7372827;19;20451;-69
2023/10/17 07:38:03;;;;;;;11.27;5.60;;;6.00;1.00;;;;;;7375637;19;20490;-70
2023/10/17 07:40:57;;;;;;;8.60;5.60;;;6.30;1.00;;;;;;7374426;19;20081;-70
2023/10/17 07:43:32;;;;;;;7.28;5.10;;;6.40;1.00;;;;;;7373029;19;20474;-71
2023/10/17 07:46:06;;;;;;;;;;;6.40;1.00;;;;;;7376973;19;20010;-70
2023/10/17 07:48:37;;;;;;;8.60;5.00;;;6.60;1.00;;;;;;7376041;19;20363;-70
2023/10/17 07:51:07;;;;;;;8.10;5.80;;;6.60;1.00;;;;;;7374447;19;20014;-70
2023/10/17 07:53:45;;;;;;;7.90;4.90;;;6.60;1.00;;;;;;7373270;19;20472;-71
2023/10/17 07:56:25;;;;;;;6.13;5.05;;;6.70;1.00;;;;;;7374553;19;20011;-70
2023/10/17 07:59:04;;;;;;;6.63;5.55;;;6.80;1.00;;;;;;7372965;19;20467;-69
2023/10/17 08:01:41;;;;;;;8.18;5.90;;;6.70;1.00;;;;;;7376466;19;20014;-69
2023/10/17 08:04:17;;;;;;;6.57;5.55;;;6.60;1.00;;;;;;7375728;19;20078;-71
2023/10/17 08:06:50;;;;;;;11.48;6.72;;;6.40;1.00;;;;;;7375343;19;20014;-70
2023/10/17 08:09:24;;;;;;;10.55;6.82;;;6.60;1.00;;;;;;7367719;19;20006;-71
2023/10/17 08:12:13;;;;;;;11.52;6.13;;;6.70;1.00;;;;;;7375319;19;20190;-70
2023/10/17 08:14:48;;;;;;;8.75;6.60;;;7.10;1.00;;;;;;7375842;19;20088;-70
2023/10/17 08:17:19;;;;;;;9.55;6.68;;;7.00;1.00;;;;;;7370767;19;20007;-70
2023/10/17 08:22:54;;;;;;;14.80;7.25;;;7.10;1.00;;;;;;7372056;19;20520;-70
2023/10/17 08:25:28;;;;;;;13.77;7.57;;;7.30;1.00;;;;;;7369711;19;20494;-69
2023/10/17 08:28:03;;;;;;;8.98;7.15;;;7.10;1.00;;;;;;7373037;19;20015;-71
2023/10/17 08:30:38;;;;;;;11.15;6.97;;;6.90;1.00;;;;;;7375138;19;20014;-70
2023/10/17 08:33:15;;;;;;;12.85;8.32;;;6.90;1.00;;;;;;7373687;19;20013;-71
2023/10/17 08:35:51;;;;;;;10.35;8.23;;;7.30;1.00;;;;;;7375351;19;20643;-70
2023/10/17 08:38:18;;;;;;;14.23;9.20;;;7.40;1.00;;;;;;7371071;19;20062;-72
2023/10/17 08:40:49;;;;;;;13.57;8.25;;;7.30;1.00;;;;;;7374418;19;20014;-70
2023/10/17 08:43:19;;;;;;;11.32;7.40;;;7.40;1.00;;;;;;7370668;19;20475;-70
2023/10/17 08:45:54;;;;;;;9.95;7.15;;;7.40;1.00;;;;;;7369826;19;20017;-71
2023/10/17 08:48:24;;;;;;;12.57;7.45;;;7.50;1.00;;;;;;7368868;19;20011;-69
2023/10/17 08:50:59;;;;;;;13.38;8.90;;;7.60;1.00;;;;;;7371574;19;20014;-70
2023/10/17 08:53:31;;;;;;;12.00;8.48;;;7.70;1.00;;;;;;7372955;19;20471;-70
2023/10/17 08:56:02;;;;;;;10.38;7.88;;;7.40;1.00;;;;;;7373164;19;20438;-70
2023/10/17 08:58:36;;;;;;;12.02;8.32;;;7.60;1.00;;;;;;7370549;19;20035;-70
2023/10/17 09:01:14;;;;;;;12.35;8.10;;;7.90;1.00;;;;;;7372678;19;20017;-69
2023/10/17 09:03:46;;;;;;;11.13;8.50;;;8.00;1.00;;;;;;7371578;19;20006;-70
2023/10/17 09:09:17;;;;;;;12.57;9.05;;;7.80;1.00;;;;;;7378387;19;20014;-71
2023/10/17 09:12:19;;;;;;;11.48;9.00;;;7.80;1.00;;;;;;7378047;19;20010;-70
2023/10/17 09:14:49;;;;;;;12.98;9.32;;;7.90;1.00;;;;;;6871374;19;2004688;-70
2023/10/17 09:17:28;;;;;;;12.50;9.15;;;8.00;1.00;;;;;;7375900;19;20033;-70
2023/10/17 09:20:06;;;;;;;13.52;9.13;;;8.10;1.00;;;;;;7375448;19;20593;-70
2023/10/17 09:22:40;;;;;;;11.55;9.25;;;8.00;1.00;;;;;;7380568;19;20058;-70
2023/10/17 09:25:19;;;;;;;12.55;9.82;;;8.10;1.00;;;;;;7378518;19;20026;-71
2023/10/17 09:27:54;;;;;;;11.57;8.77;;;8.30;1.00;;;;;;7378027;19;20598;-70
2023/10/17 09:30:26;;;;;;;13.85;9.80;;;8.20;1.00;;;;;;7377833;19;20057;-70
2023/10/17 09:32:59;;;;;;;13.20;9.38;;;8.20;1.00;;;;;;7377752;19;20039;-70
2023/10/17 09:35:30;;;;;;;13.75;9.63;;;8.60;1.00;;;;;;7378672;19;20028;-69
2023/10/17 09:38:00;;;;;;;13.30;10.10;;;8.80;1.00;;;;;;7375743;19;20027;-70
2023/10/17 09:40:33;;;;;;;15.43;9.93;;;8.90;1.00;;;;;;7377913;19;20087;-70
2023/10/17 09:43:06;;;;;;;14.10;10.60;;;8.80;1.00;;;;;;7378900;19;20030;-70
2023/10/17 09:45:41;;;;;;;12.18;9.73;;;8.90;1.00;;;;;;7379175;19;20035;-71
2023/10/17 09:48:17;;;;;;;13.10;10.50;;;8.80;1.00;;;;;;7377387;19;20022;-70
2023/10/17 09:50:49;;;;;;;14.40;9.95;;;8.80;1.00;;;;;;7394236;19;20058;-71
2023/10/17 09:53:19;;;;;;;12.85;9.82;;;8.70;1.00;;;;;;7383095;19;20010;-70
2023/10/17 09:55:55;;;;;;;13.82;10.13;;;9.00;1.00;;;;;;7377117;19;20085;-71
2023/10/17 09:58:30;;;;;;;13.63;10.30;;;9.10;1.00;;;;;;7378704;19;20014;-71
2023/10/17 10:01:05;;;;;;;14.43;10.40;;;9.10;1.00;;;;;;7380159;19;20035;-70
2023/10/17 10:03:40;;;;;;;14.70;10.82;;;9.10;1.00;;;;;;7378861;19;20045;-70
2023/10/17 10:06:26;;;;;;;14.73;10.98;;;9.20;1.00;;;;;;7378031;19;20489;-70
2023/10/17 10:09:26;;;;;;;14.73;10.70;;;9.50;1.00;;;;;;7372794;19;20013;-70
2023/10/17 10:11:58;;;;;;;15.35;10.40;;;9.70;1.00;;;;;;7375826;19;20026;-70
2023/10/17 10:14:43;;;;;;;13.52;9.52;;;9.70;1.00;;;;;;7378152;19;20007;-70
2023/10/17 10:17:14;;;;;;;13.90;10.13;;;9.80;1.00;;;;;;7376726;19;20019;-70
2023/10/17 10:20:04;;;;;;;13.30;10.82;;;9.80;1.00;;;;;;7378161;19;20360;-71
2023/10/17 10:22:56;;;;;;;13.55;10.07;;;9.60;1.00;;;;;;6866448;19;2004678;-70
2023/10/17 10:25:26;;;;;;;15.35;10.48;;;9.60;1.00;;;;;;7374744;19;20088;-70
2023/10/17 10:28:29;;;;;;;17.98;11.25;;;9.80;1.00;;;;;;7376001;19;20106;-70
2023/10/17 10:30:59;;;;;;;14.80;10.82;;;9.70;1.00;;;;;;7373433;19;20482;-69
2023/10/17 10:33:31;;;;;;;15.23;10.77;;;9.50;1.00;;;;;;7378324;19;20048;-70
2023/10/17 10:36:05;;;;;;;14.82;10.40;;;9.70;1.00;;;;;;7378214;19;20126;-70
2023/10/17 10:38:35;;;;;;;14.23;10.60;;;9.60;1.00;;;;;;7377949;19;20015;-70
2023/10/17 10:41:11;;;;;;;13.38;10.90;;;9.70;1.00;;;;;;7376849;19;20378;-70
2023/10/17 10:43:41;;;;;;;15.25;10.27;;;9.80;1.00;;;;;;7376112;19;20018;-70
2023/10/17 10:46:11;;;;;;;15.93;11.63;;;10.10;1.00;;;;;;7376603;19;20033;-70
2023/10/17 10:48:51;;;;;;;16.77;11.80;;;10.30;1.00;;;;;;7375473;19;20018;-70
2023/10/17 10:51:24;;;;;;;13.38;10.70;;;10.10;1.00;;;;;;7374652;19;20057;-70
2023/10/17 10:53:57;;;;;;;17.58;12.38;;;10.20;1.00;;;;;;7373717;19;20010;-71
2023/10/17 10:56:27;;;;;;;13.38;10.38;;;10.00;1.00;;;;;;7376566;19;20014;-70
2023/10/17 10:58:59;;;;;;;13.70;10.95;;;10.00;1.00;;;;;;7374855;19;20014;-71
2023/10/17 11:01:29;;;;;;;23.05;11.50;;;10.10;1.00;;;;;;7377071;19;20010;-70
2023/10/17 11:04:00;;;;;;;15.57;11.25;;;10.10;1.00;;;;;;7375564;19;20049;-70
2023/10/17 11:06:35;;;;;;;14.23;11.13;;;10.10;1.00;;;;;;7374898;19;21004;-70
2023/10/17 11:09:09;;;;;;;16.48;11.38;;;10.10;1.00;;;;;;7375949;19;20015;-70
2023/10/17 11:11:45;;;;;;;12.70;10.77;;;10.20;1.00;;;;;;7375286;19;20014;-70
2023/10/17 11:14:19;;;;;;;15.48;10.95;;;10.50;1.00;;;;;;7372580;19;20509;-69
2023/10/17 11:16:50;;;;;;;14.38;10.75;;;10.60;1.00;;;;;;7374515;19;20462;-70
2023/10/17 11:19:22;;;;;;;14.45;10.93;;;10.50;1.00;;;;;;7373165;19;20011;-69
2023/10/17 11:21:58;;;;;;;17.10;11.40;;;10.50;1.00;;;;;;7372228;19;20006;-70
2023/10/17 11:24:29;;;;;;;13.75;10.38;;;10.70;1.00;;;;;;7374934;19;20018;-72
2023/10/17 11:27:00;;;;;;;14.90;10.60;;;10.60;1.00;;;;;;7373926;19;20052;-70
2023/10/17 11:29:30;;;;;;;14.18;10.77;;;10.90;1.00;;;;;;7373686;19;20010;-70
2023/10/17 11:32:00;;;;;;;16.65;10.93;;;10.80;1.00;;;;;;7375141;19;20014;-70
2023/10/17 11:34:34;;;;;;;13.88;10.55;;;11.00;1.00;;;;;;7374886;19;20018;-71
2023/10/17 11:37:11;;;;;;;13.77;10.73;;;10.80;1.00;;;;;;7373900;19;20341;-69
2023/10/17 11:39:42;;;;;;;13.20;10.43;;;10.90;1.00;;;;;;7374334;19;20018;-70
2023/10/17 11:42:12;;;;;;;14.32;11.27;;;10.90;1.00;;;;;;7373743;19;20047;-70
2023/10/17 11:44:46;;;;;;;13.38;10.10;;;10.70;1.00;;;;;;7373352;19;20026;-69
2023/10/17 11:47:23;;;;;;;12.90;9.80;;;10.80;1.00;;;;;;7374458;19;20003;-71
2023/10/17 11:49:54;;;;;;;13.52;9.40;;;10.90;1.00;;;;;;7372976;19;20082;-70
2023/10/17 11:52:27;;;;;;;12.73;10.05;;;10.90;1.00;;;;;;7371931;19;20056;-69
2023/10/17 11:55:00;;;;;;;12.07;9.40;;;11.00;1.00;;;;;;7374984;19;20021;-70
2023/10/17 11:57:32;;;;;;;12.93;10.40;;;10.90;1.00;;;;;;7373238;19;20035;-70
2023/10/17 12:00:07;;;;;;;13.15;10.13;;;11.10;1.00;;;;;;7374344;19;20102;-71
2023/10/17 12:02:41;;;;;;;13.57;9.75;;;10.90;1.00;;;;;;7370252;19;20044;-70
2023/10/17 12:05:17;;;;;;;13.70;10.23;;;11.10;1.00;;;;;;7374832;19;20101;-70
2023/10/17 12:07:53;;;;;;;12.80;9.80;;;11.10;1.00;;;;;;7373287;19;20408;-70
2023/10/17 12:10:25;;;;;;;14.10;10.10;;;11.10;1.00;;;;;;7372248;19;20019;-70
2023/10/17 12:12:58;;;;;;;14.95;9.80;;;11.30;1.00;;;;;;7372580;19;20455;-71
2023/10/17 12:15:29;;;;;;;13.67;9.33;;;11.40;1.00;;;;;;7373518;19;20026;-70
2023/10/17 12:17:59;;;;;;;12.90;9.77;;;11.50;1.00;;;;;;7367529;19;20686;-71
2023/10/17 12:20:30;;;;;;;13.23;10.23;;;11.30;1.00;;;;;;7373388;19;20014;-71
2023/10/17 12:23:02;;;;;;;13.68;9.48;;;11.50;1.00;;;;;;7371528;19;20026;-70
2023/10/17 12:25:34;;;;;;;13.23;9.40;;;11.60;1.00;;;;;;7373163;19;20068;-72
2023/10/17 12:28:06;;;;;;;11.95;10.15;;;11.90;1.00;;;;;;7371180;19;20011;-70
2023/10/17 12:30:39;;;;;;;13.32;10.07;;;11.80;1.00;;;;;;7371336;19;20788;-71
2023/10/17 12:33:09;;;;;;;13.95;10.50;;;12.20;1.00;;;;;;7373914;19;20007;-70
2023/10/17 12:35:46;;;;;;;12.70;9.88;;;12.80;1.00;;;;;;7371558;19;20383;-69
2023/10/17 12:38:24;;;;;;;13.60;10.13;;;12.70;1.00;;;;;;7370377;19;20467;-71
2023/10/17 12:40:54;;;;;;;12.27;10.00;;;12.10;1.00;;;;;;7377288;19;20550;-70
2023/10/17 12:43:24;;;;;;;13.63;10.25;;;12.00;1.00;;;;;;7379517;19;20074;-70
2023/10/17 12:45:55;;;;;;;13.77;9.98;;;11.90;1.00;;;;;;7379602;19;20018;-71
2023/10/17 12:48:25;;;;;;;14.15;9.55;;;11.70;1.00;;;;;;7376728;19;20155;-70
2023/10/17 12:50:55;;;;;;;13.50;10.20;;;11.80;1.00;;;;;;7377945;19;20594;-69
2023/10/17 12:53:28;;;;;;;11.73;8.95;;;12.00;1.00;;;;;;7378898;19;20015;-71
2023/10/17 12:55:58;;;;;;;13.82;8.98;;;12.20;1.00;;;;;;7378023;19;20006;-69
2023/10/17 12:58:29;;;;;;;10.18;9.15;;;12.10;1.00;;;;;;7376198;19;20081;-69
2023/10/17 13:00:59;;;;;;;14.55;10.43;;;12.30;1.00;;;;;;7378874;19;20069;-70
2023/10/17 13:03:30;;;;;;;11.25;9.32;;;12.30;1.00;;;;;;7379426;19;20544;-70
2023/10/17 13:06:00;;;;;;;12.52;9.15;;;12.20;1.00;;;;;;7379498;19;20527;-71
2023/10/17 13:08:33;;;;;;;11.35;9.07;;;12.10;1.00;;;;;;7379286;19;20010;-70
2023/10/17 13:11:03;;;;;;;11.90;9.15;;;12.40;1.00;;;;;;7378688;19;20014;-69
2023/10/17 13:13:33;;;;;;;13.20;10.25;;;12.50;1.00;;;;;;7377888;19;20007;-70
2023/10/17 13:16:05;;;;;;;10.80;9.20;;;12.10;1.00;;;;;;7393592;19;20014;-70
2023/10/17 13:18:40;;;;;;;10.50;8.93;;;12.20;1.00;;;;;;7377167;19;20041;-70
2023/10/17 13:21:15;;;;;;;12.02;9.23;;;12.10;1.00;;;;;;7380743;19;20018;-69
2023/10/17 13:23:48;;;;;;;11.45;9.02;;;12.30;1.00;;;;;;7379640;19;20015;-71
2023/10/17 13:26:19;;;;;;;14.27;9.68;;;12.50;1.00;;;;;;7377211;19;20025;-70
2023/10/17 13:28:50;;;;;;;12.02;9.18;;;12.50;1.00;;;;;;7377366;19;20025;-71
2023/10/17 13:31:20;;;;;;;13.85;9.68;;;12.50;1.00;;;;;;7377465;19;20191;-71
2023/10/17 13:33:50;;;;;;;16.90;11.45;;;12.40;1.00;;;;;;7379544;19;20016;-71
2023/10/17 13:36:21;;;;;;;14.35;10.25;;;12.50;1.00;;;;;;7378223;19;20351;-71
2023/10/17 13:38:54;;;;;;;11.38;9.10;;;12.30;1.00;;;;;;7380954;19;20401;-71
2023/10/17 13:41:25;;;;;;;10.63;8.98;;;12.50;1.00;;;;;;7376115;19;20014;-70
2023/10/17 13:43:55;;;;;;;10.95;8.55;;;12.30;1.00;;;;;;7375643;19;20066;-72
2023/10/17 13:46:25;;;;;;;14.65;9.02;;;12.40;1.00;;;;;;7376020;19;20729;-71
2023/10/17 13:48:58;;;;;;;11.55;9.25;;;12.30;1.00;;;;;;7370564;19;20420;-70
2023/10/17 13:51:34;;;;;;;12.50;9.98;;;12.30;1.00;;;;;;7377324;19;20463;-71
2023/10/17 13:54:09;;;;;;;17.27;9.88;;;12.40;1.00;;;;;;7378330;19;20014;-71
2023/10/17 13:56:39;;;;;;;12.88;9.10;;;12.40;1.00;;;;;;7375222;19;20010;-71
2023/10/17 13:59:10;;;;;;;11.82;9.65;;;12.30;1.00;;;;;;7377010;19;20011;-71
2023/10/17 14:01:46;;;;;;;13.13;8.90;;;12.30;1.00;;;;;;7376976;19;20010;-71
2023/10/17 14:04:17;;;;;;;20.17;9.68;;;12.20;1.00;;;;;;7376948;19;20006;-71
2023/10/17 14:06:48;;;;;;;11.52;9.15;;;12.30;1.00;;;;;;7375660;19;20036;-71
2023/10/17 14:09:23;;;;;;;11.60;9.43;;;12.20;1.00;;;;;;7375700;19;20021;-71
2023/10/17 14:11:53;;;;;;;11.95;9.43;;;12.30;1.00;;;;;;7372910;19;20006;-71
2023/10/17 14:14:25;;;;;;;12.77;9.90;;;12.40;1.00;;;;;;7378336;19;20420;-72
2023/10/17 14:16:56;;;;;;;11.23;8.60;;;12.30;1.00;;;;;;7372372;19;20069;-72
2023/10/17 14:19:36;;;;;;;12.50;9.07;;;12.20;1.00;;;;;;7370782;19;20039;-71
2023/10/17 14:22:20;;;;;;;14.00;9.80;;;12.10;1.00;;;;;;7370566;19;20023;-72
2023/10/17 14:25:04;;;;;;;15.82;10.07;;;12.10;1.00;;;;;;7373733;19;20078;-72
2023/10/17 14:27:32;;;;;;;10.80;8.80;;;12.00;1.00;;;;;;6857698;19;2003975;-71
2023/10/17 14:30:05;;;;;;;14.02;9.02;;;12.00;1.00;;;;;;7377869;19;20035;-70
2023/10/17 14:32:33;;;;;;;11.88;9.18;;;12.00;1.00;;;;;;7376652;19;20010;-71
2023/10/17 14:35:04;;;;;;;11.45;8.80;;;12.00;1.00;;;;;;7377763;19;20010;-71
2023/10/17 14:37:34;;;;;;;12.18;9.00;;;11.90;1.00;;;;;;7373323;19;20542;-70
2023/10/17 14:40:11;;;;;;;12.43;9.82;;;11.90;1.00;;;;;;7376013;19;20015;-70
2023/10/17 14:42:44;;;;;;;13.65;9.18;;;12.10;1.00;;;;;;7376737;19;20092;-69
2023/10/17 14:45:15;;;;;;;12.30;8.82;;;12.10;1.00;;;;;;7377000;19;20030;-71
2023/10/17 14:47:47;;;;;;;13.23;9.35;;;12.20;1.00;;;;;;7374914;19;20085;-71
2023/10/17 14:50:17;;;;;;;10.95;8.70;;;12.30;1.00;;;;;;7374902;19;20763;-70
2023/10/17 14:52:47;;;;;;;12.73;9.25;;;12.30;1.00;;;;;;7377016;19;20033;-70
2023/10/17 14:55:23;;;;;;;11.32;8.38;;;12.20;1.00;;;;;;7374888;19;20097;-71
2023/10/17 14:57:53;;;;;;;12.52;8.80;;;12.20;1.00;;;;;;7374795;19;20025;-71
2023/10/17 15:00:24;;;;;;;11.43;9.35;;;12.10;1.00;;;;;;7375737;19;20382;-72
2023/10/17 15:02:55;;;;;;;12.07;8.63;;;11.90;1.00;;;;;;7373342;19;20033;-70
2023/10/17 15:05:25;;;;;;;14.75;9.43;;;11.90;1.00;;;;;;7373765;19;20372;-70
2023/10/17 15:07:55;;;;;;;14.02;9.48;;;11.90;1.00;;;;;;7373763;19;20018;-71